FHV2 KPIT-KBOS
Flight info
| Callsign | FHV2 |
|---|---|
| Flight time | 1h 12m |
| Altitude | 35000 |
| Route | TYROO PSB J49 HNK PONCT JFUND2 |
| Aircraft | B738/M-SDE2E3FGHIRWXY/LB1 |
Departure
| Time | 2026-05-06 02:17 |
|---|---|
| Airport | Pittsburgh International Airport (KPIT) |
Arrival
| Time | 2026-05-06 03:29 |
|---|---|
| Airport | Boston Logan International Airport (KBOS) |
| Time | Latitude | Longitude | Altitude | Speed | Heading |
|---|---|---|---|---|---|
| 2026-05-06 01:44 | 40.49269 | -80.24219 | 1150 ft | 0 kts | 5° |
| 2026-05-06 02:00 | 40.49257 | -80.24220 | 1149 ft | 3 kts | 5° |
| 2026-05-06 02:00 | 40.49236 | -80.24222 | 1149 ft | 3 kts | 5° |
| 2026-05-06 02:01 | 40.49216 | -80.24224 | 1147 ft | 3 kts | 5° |
| 2026-05-06 02:01 | 40.49208 | -80.24225 | 1147 ft | 3 kts | 5° |
| 2026-05-06 02:04 | 40.49212 | -80.24229 | 1148 ft | 2 kts | 330° |
| 2026-05-06 02:05 | 40.49215 | -80.24251 | 1148 ft | 3 kts | 268° |
| 2026-05-06 02:05 | 40.49215 | -80.24276 | 1148 ft | 3 kts | 269° |
| 2026-05-06 02:05 | 40.49214 | -80.24325 | 1148 ft | 8 kts | 269° |
| 2026-05-06 02:05 | 40.49171 | -80.24366 | 1147 ft | 9 kts | 181° |
| 2026-05-06 02:06 | 40.49108 | -80.24361 | 1147 ft | 9 kts | 162° |
| 2026-05-06 02:06 | 40.49077 | -80.24287 | 1145 ft | 13 kts | 92° |
| 2026-05-06 02:06 | 40.49074 | -80.24158 | 1147 ft | 14 kts | 92° |
| 2026-05-06 02:06 | 40.49070 | -80.24033 | 1148 ft | 13 kts | 92° |
| 2026-05-06 02:07 | 40.49066 | -80.23913 | 1147 ft | 13 kts | 92° |
| 2026-05-06 02:07 | 40.49062 | -80.23788 | 1146 ft | 16 kts | 92° |
| 2026-05-06 02:07 | 40.49059 | -80.23638 | 1148 ft | 16 kts | 91° |
| 2026-05-06 02:07 | 40.49056 | -80.23482 | 1150 ft | 20 kts | 91° |
| 2026-05-06 02:08 | 40.49051 | -80.23276 | 1144 ft | 24 kts | 92° |
| 2026-05-06 02:08 | 40.49045 | -80.23063 | 1145 ft | 23 kts | 92° |
| 2026-05-06 02:08 | 40.49052 | -80.22949 | 1146 ft | 5 kts | 54° |
| 2026-05-06 02:08 | 40.49116 | -80.22954 | 1146 ft | 16 kts | 315° |
| 2026-05-06 02:09 | 40.49126 | -80.23021 | 1148 ft | 0 kts | 242° |
| 2026-05-06 02:14 | 40.49125 | -80.23023 | 1148 ft | 3 kts | 240° |
| 2026-05-06 02:14 | 40.49070 | -80.23001 | 1146 ft | 17 kts | 129° |
| 2026-05-06 02:14 | 40.49037 | -80.22828 | 1143 ft | 8 kts | 92° |
| 2026-05-06 02:15 | 40.49034 | -80.22696 | 1142 ft | 23 kts | 92° |
| 2026-05-06 02:15 | 40.49028 | -80.22448 | 1145 ft | 24 kts | 92° |
| 2026-05-06 02:15 | 40.49017 | -80.22347 | 1143 ft | 3 kts | 150° |
| 2026-05-06 02:15 | 40.49003 | -80.22355 | 1146 ft | 0 kts | 222° |
| 2026-05-06 02:16 | 40.48984 | -80.22377 | 1147 ft | 11 kts | 222° |
| 2026-05-06 02:16 | 40.48933 | -80.22556 | 1144 ft | 45 kts | 271° |
| 2026-05-06 02:16 | 40.48952 | -80.23289 | 1148 ft | 114 kts | 272° |
| 2026-05-06 02:17 | 40.48986 | -80.24589 | 1163 ft | 168 kts | 270° |
| 2026-05-06 02:17 | 40.49031 | -80.26162 | 1807 ft | 172 kts | 270° |
| 2026-05-06 02:17 | 40.49048 | -80.27652 | 2878 ft | 155 kts | 266° |
| 2026-05-06 02:17 | 40.49000 | -80.29075 | 3597 ft | 163 kts | 262° |
| 2026-05-06 02:18 | 40.48906 | -80.30696 | 3858 ft | 191 kts | 261° |
| 2026-05-06 02:18 | 40.48797 | -80.32542 | 4061 ft | 215 kts | 261° |
| 2026-05-06 02:18 | 40.48658 | -80.34280 | 4517 ft | 222 kts | 260° |
| 2026-05-06 02:18 | 40.48810 | -80.36407 | 4881 ft | 252 kts | 288° |
| 2026-05-06 02:19 | 40.50000 | -80.38206 | 5617 ft | 278 kts | 322° |
| 2026-05-06 02:19 | 40.51899 | -80.38963 | 6413 ft | 298 kts | 352° |
| 2026-05-06 02:19 | 40.53991 | -80.38873 | 7155 ft | 307 kts | 359° |
| 2026-05-06 02:19 | 40.56136 | -80.38625 | 7974 ft | 311 kts | 0° |
| 2026-05-06 02:20 | 40.60484 | -80.38037 | 9606 ft | 319 kts | 1° |
| 2026-05-06 02:20 | 40.62708 | -80.37730 | 10337 ft | 325 kts | 0° |
| 2026-05-06 02:20 | 40.65041 | -80.37399 | 10603 ft | 350 kts | 0° |
| 2026-05-06 02:21 | 40.67540 | -80.37053 | 10826 ft | 372 kts | 1° |
| 2026-05-06 02:21 | 40.70146 | -80.36643 | 11414 ft | 383 kts | 8° |
| 2026-05-06 02:21 | 40.72615 | -80.35232 | 12192 ft | 394 kts | 32° |
| 2026-05-06 02:21 | 40.74598 | -80.32715 | 13013 ft | 400 kts | 53° |
| 2026-05-06 02:22 | 40.75884 | -80.29441 | 13745 ft | 405 kts | 72° |
| 2026-05-06 02:22 | 40.76390 | -80.25792 | 14370 ft | 406 kts | 90° |
| 2026-05-06 02:22 | 40.76411 | -80.22104 | 14951 ft | 410 kts | 94° |
| 2026-05-06 02:22 | 40.76299 | -80.18329 | 15543 ft | 414 kts | 95° |
| 2026-05-06 02:23 | 40.76161 | -80.14512 | 16141 ft | 418 kts | 95° |
| 2026-05-06 02:23 | 40.76039 | -80.10664 | 16724 ft | 423 kts | 94° |
| 2026-05-06 02:23 | 40.75947 | -80.06771 | 17312 ft | 427 kts | 94° |
| 2026-05-06 02:23 | 40.75881 | -80.02826 | 17894 ft | 431 kts | 93° |
| 2026-05-06 02:24 | 40.75835 | -79.98849 | 18457 ft | 434 kts | 93° |
| 2026-05-06 02:24 | 40.75799 | -79.94849 | 18979 ft | 438 kts | 92° |
| 2026-05-06 02:24 | 40.75769 | -79.90814 | 19503 ft | 441 kts | 92° |
| 2026-05-06 02:24 | 40.75740 | -79.86762 | 20028 ft | 444 kts | 92° |
| 2026-05-06 02:25 | 40.75709 | -79.82680 | 20550 ft | 446 kts | 92° |
| 2026-05-06 02:25 | 40.75675 | -79.78567 | 21048 ft | 450 kts | 92° |
| 2026-05-06 02:25 | 40.75640 | -79.74432 | 21526 ft | 453 kts | 92° |
| 2026-05-06 02:25 | 40.75602 | -79.70262 | 22006 ft | 456 kts | 92° |
| 2026-05-06 02:26 | 40.75562 | -79.66068 | 22476 ft | 459 kts | 92° |
| 2026-05-06 02:26 | 40.75521 | -79.61904 | 22940 ft | 461 kts | 92° |
| 2026-05-06 02:26 | 40.75477 | -79.57658 | 23404 ft | 464 kts | 92° |
| 2026-05-06 02:26 | 40.75431 | -79.53384 | 23778 ft | 467 kts | 92° |
| 2026-05-06 02:27 | 40.75383 | -79.49081 | 24158 ft | 470 kts | 92° |
| 2026-05-06 02:27 | 40.75334 | -79.44758 | 24524 ft | 473 kts | 92° |
| 2026-05-06 02:27 | 40.75283 | -79.40407 | 24882 ft | 476 kts | 92° |
| 2026-05-06 02:27 | 40.75229 | -79.36028 | 25238 ft | 479 kts | 92° |
| 2026-05-06 02:28 | 40.75174 | -79.31626 | 25599 ft | 481 kts | 92° |
| 2026-05-06 02:28 | 40.75117 | -79.27210 | 25937 ft | 484 kts | 92° |
| 2026-05-06 02:28 | 40.75058 | -79.22756 | 26275 ft | 487 kts | 92° |
| 2026-05-06 02:28 | 40.74997 | -79.18271 | 26608 ft | 489 kts | 92° |
| 2026-05-06 02:29 | 40.74933 | -79.13775 | 26954 ft | 491 kts | 92° |
| 2026-05-06 02:29 | 40.74868 | -79.09258 | 27273 ft | 494 kts | 92° |
| 2026-05-06 02:29 | 40.74802 | -79.04781 | 27611 ft | 496 kts | 92° |
| 2026-05-06 02:29 | 40.74732 | -79.00222 | 27928 ft | 499 kts | 92° |
| 2026-05-06 02:30 | 40.74660 | -78.95636 | 28242 ft | 501 kts | 91° |
| 2026-05-06 02:30 | 40.74587 | -78.91044 | 28542 ft | 503 kts | 91° |
| 2026-05-06 02:30 | 40.74511 | -78.86421 | 28826 ft | 505 kts | 91° |
| 2026-05-06 02:30 | 40.74434 | -78.81766 | 29109 ft | 508 kts | 91° |
| 2026-05-06 02:31 | 40.74354 | -78.77100 | 29410 ft | 510 kts | 91° |
| 2026-05-06 02:31 | 40.74271 | -78.72425 | 29685 ft | 512 kts | 91° |
| 2026-05-06 02:31 | 40.74185 | -78.67728 | 29927 ft | 514 kts | 91° |
| 2026-05-06 02:31 | 40.74098 | -78.63003 | 30192 ft | 515 kts | 91° |
| 2026-05-06 02:32 | 40.74009 | -78.58290 | 30505 ft | 515 kts | 91° |
| 2026-05-06 02:32 | 40.73917 | -78.53566 | 30831 ft | 514 kts | 91° |
| 2026-05-06 02:32 | 40.73825 | -78.48860 | 31111 ft | 514 kts | 91° |
| 2026-05-06 02:32 | 40.73731 | -78.44144 | 31354 ft | 516 kts | 90° |
| 2026-05-06 02:33 | 40.73692 | -78.39404 | 31612 ft | 516 kts | 85° |
| 2026-05-06 02:33 | 40.73960 | -78.36304 | 31784 ft | 513 kts | 76° |
| 2026-05-06 02:33 | 40.76955 | -78.26274 | 32520 ft | 496 kts | 50° |
| 2026-05-06 02:34 | 40.78953 | -78.22584 | 32855 ft | 492 kts | 47° |
| 2026-05-06 02:34 | 40.80987 | -78.18952 | 33164 ft | 492 kts | 47° |
| 2026-05-06 02:34 | 40.83011 | -78.15310 | 33452 ft | 492 kts | 47° |
| 2026-05-06 02:34 | 40.85013 | -78.11641 | 33772 ft | 492 kts | 47° |
| 2026-05-06 02:35 | 40.86966 | -78.08003 | 34044 ft | 491 kts | 47° |
| 2026-05-06 02:35 | 40.88936 | -78.04308 | 34254 ft | 492 kts | 47° |
| 2026-05-06 02:35 | 40.90904 | -78.00615 | 34465 ft | 492 kts | 47° |
| 2026-05-06 02:35 | 40.92806 | -77.96834 | 34702 ft | 494 kts | 51° |
| 2026-05-06 02:36 | 40.94592 | -77.92942 | 34865 ft | 497 kts | 52° |
| 2026-05-06 02:36 | 40.98083 | -77.84949 | 34875 ft | 505 kts | 53° |
| 2026-05-06 02:37 | 41.01619 | -77.76850 | 34863 ft | 511 kts | 53° |
| 2026-05-06 02:37 | 41.05227 | -77.68685 | 34866 ft | 514 kts | 53° |
| 2026-05-06 02:38 | 41.08853 | -77.60495 | 34836 ft | 515 kts | 53° |
| 2026-05-06 02:38 | 41.12476 | -77.52283 | 34826 ft | 515 kts | 53° |
| 2026-05-06 02:39 | 41.16065 | -77.44125 | 34824 ft | 514 kts | 54° |
| 2026-05-06 02:39 | 41.19670 | -77.35912 | 34836 ft | 514 kts | 54° |
| 2026-05-06 02:40 | 41.22654 | -77.29102 | 34837 ft | 514 kts | 54° |
| 2026-05-06 02:40 | 41.26245 | -77.20879 | 34837 ft | 513 kts | 54° |
| 2026-05-06 02:41 | 41.29826 | -77.12658 | 34833 ft | 513 kts | 54° |
| 2026-05-06 02:41 | 41.33397 | -77.04438 | 34840 ft | 513 kts | 54° |
| 2026-05-06 02:42 | 41.36938 | -76.96262 | 34837 ft | 513 kts | 54° |
| 2026-05-06 02:42 | 41.40497 | -76.88028 | 34846 ft | 513 kts | 55° |
| 2026-05-06 02:43 | 41.44052 | -76.79776 | 34837 ft | 513 kts | 55° |
| 2026-05-06 02:43 | 41.47606 | -76.71502 | 34829 ft | 513 kts | 55° |
| 2026-05-06 02:44 | 41.51126 | -76.63288 | 34833 ft | 513 kts | 56° |
| 2026-05-06 02:44 | 41.54664 | -76.55018 | 34841 ft | 512 kts | 56° |
| 2026-05-06 02:45 | 41.58201 | -76.46750 | 34833 ft | 513 kts | 56° |
| 2026-05-06 02:45 | 41.61734 | -76.38469 | 34835 ft | 513 kts | 56° |
| 2026-05-06 02:46 | 41.65261 | -76.30177 | 34841 ft | 512 kts | 56° |
| 2026-05-06 02:46 | 41.68779 | -76.21885 | 34838 ft | 512 kts | 56° |
| 2026-05-06 02:47 | 41.72280 | -76.13564 | 34838 ft | 512 kts | 57° |
| 2026-05-06 02:47 | 41.75762 | -76.05248 | 34830 ft | 512 kts | 57° |
| 2026-05-06 02:48 | 41.79239 | -75.96929 | 34842 ft | 511 kts | 57° |
| 2026-05-06 02:48 | 41.82697 | -75.88660 | 34839 ft | 511 kts | 57° |
| 2026-05-06 02:49 | 41.86176 | -75.80346 | 34841 ft | 511 kts | 57° |
| 2026-05-06 02:49 | 41.89648 | -75.72021 | 34843 ft | 511 kts | 57° |
| 2026-05-06 02:50 | 41.93110 | -75.63692 | 34848 ft | 510 kts | 57° |
| 2026-05-06 02:50 | 41.96562 | -75.55350 | 34857 ft | 510 kts | 57° |
| 2026-05-06 02:51 | 41.99992 | -75.47007 | 34852 ft | 510 kts | 57° |
| 2026-05-06 02:51 | 42.03412 | -75.38662 | 34855 ft | 510 kts | 57° |
| 2026-05-06 02:52 | 42.06849 | -75.30319 | 34861 ft | 509 kts | 56° |
| 2026-05-06 02:52 | 42.10526 | -75.22248 | 34866 ft | 508 kts | 53° |
| 2026-05-06 02:53 | 42.14335 | -75.14225 | 34863 ft | 508 kts | 53° |
| 2026-05-06 02:53 | 42.18122 | -75.06164 | 34850 ft | 508 kts | 54° |
| 2026-05-06 02:54 | 42.21876 | -74.98065 | 34859 ft | 508 kts | 54° |
| 2026-05-06 02:54 | 42.25575 | -74.90029 | 34869 ft | 508 kts | 54° |
| 2026-05-06 02:55 | 42.29295 | -74.81925 | 34861 ft | 508 kts | 54° |
| 2026-05-06 02:55 | 42.33015 | -74.73807 | 34857 ft | 508 kts | 54° |
| 2026-05-06 02:56 | 42.36732 | -74.65678 | 34856 ft | 509 kts | 54° |
| 2026-05-06 02:56 | 42.40443 | -74.57534 | 34850 ft | 509 kts | 55° |
| 2026-05-06 02:57 | 42.44152 | -74.49376 | 34853 ft | 508 kts | 55° |
| 2026-05-06 02:57 | 42.47863 | -74.41190 | 34855 ft | 509 kts | 55° |
| 2026-05-06 02:58 | 42.51541 | -74.33056 | 34850 ft | 509 kts | 55° |
| 2026-05-06 02:58 | 42.55233 | -74.24866 | 34844 ft | 509 kts | 55° |
| 2026-05-06 02:59 | 42.58924 | -74.16654 | 34843 ft | 509 kts | 56° |
| 2026-05-06 02:59 | 42.62612 | -74.08431 | 34855 ft | 510 kts | 56° |
| 2026-05-06 03:00 | 42.66297 | -74.00188 | 34860 ft | 510 kts | 56° |
| 2026-05-06 03:00 | 42.69978 | -73.91932 | 34864 ft | 511 kts | 56° |
| 2026-05-06 03:01 | 42.73564 | -73.83649 | 34857 ft | 513 kts | 64° |
| 2026-05-06 03:01 | 42.74652 | -73.79021 | 34871 ft | 515 kts | 81° |
| 2026-05-06 03:01 | 42.74863 | -73.74154 | 34896 ft | 514 kts | 91° |
| 2026-05-06 03:02 | 42.74696 | -73.64470 | 34864 ft | 508 kts | 92° |
| 2026-05-06 03:02 | 42.74519 | -73.54867 | 34818 ft | 507 kts | 92° |
| 2026-05-06 03:03 | 42.74417 | -73.45382 | 34717 ft | 498 kts | 91° |
| 2026-05-06 03:03 | 42.74378 | -73.40696 | 34367 ft | 492 kts | 91° |
| 2026-05-06 03:03 | 42.74339 | -73.36070 | 33873 ft | 489 kts | 92° |
| 2026-05-06 03:03 | 42.74296 | -73.31428 | 33182 ft | 489 kts | 92° |
| 2026-05-06 03:04 | 42.74249 | -73.26784 | 32489 ft | 491 kts | 92° |
| 2026-05-06 03:04 | 42.74199 | -73.22137 | 31756 ft | 492 kts | 92° |
| 2026-05-06 03:04 | 42.74147 | -73.17474 | 31047 ft | 494 kts | 93° |
| 2026-05-06 03:04 | 42.74093 | -73.12791 | 30292 ft | 496 kts | 93° |
| 2026-05-06 03:05 | 42.73889 | -73.08115 | 29646 ft | 493 kts | 99° |
| 2026-05-06 03:05 | 42.73412 | -73.03517 | 29063 ft | 487 kts | 103° |
| 2026-05-06 03:05 | 42.72831 | -72.99058 | 28515 ft | 482 kts | 104° |
| 2026-05-06 03:05 | 42.72227 | -72.94596 | 27973 ft | 478 kts | 104° |
| 2026-05-06 03:06 | 42.71649 | -72.90168 | 27432 ft | 474 kts | 103° |
| 2026-05-06 03:06 | 42.71103 | -72.85755 | 26880 ft | 470 kts | 103° |
| 2026-05-06 03:06 | 42.70582 | -72.81372 | 26340 ft | 467 kts | 103° |
| 2026-05-06 03:06 | 42.70075 | -72.77027 | 25809 ft | 463 kts | 103° |
| 2026-05-06 03:07 | 42.69572 | -72.72718 | 25297 ft | 459 kts | 103° |
| 2026-05-06 03:07 | 42.69069 | -72.68431 | 24711 ft | 458 kts | 103° |
| 2026-05-06 03:07 | 42.68564 | -72.64167 | 24214 ft | 456 kts | 103° |
| 2026-05-06 03:07 | 42.68063 | -72.59983 | 23725 ft | 453 kts | 104° |
| 2026-05-06 03:08 | 42.67553 | -72.55776 | 23177 ft | 450 kts | 104° |
| 2026-05-06 03:08 | 42.67043 | -72.51595 | 22611 ft | 447 kts | 104° |
| 2026-05-06 03:08 | 42.66536 | -72.47449 | 22059 ft | 443 kts | 103° |
| 2026-05-06 03:08 | 42.66026 | -72.43283 | 21533 ft | 439 kts | 103° |
| 2026-05-06 03:09 | 42.65535 | -72.39269 | 21168 ft | 432 kts | 103° |
| 2026-05-06 03:09 | 42.65050 | -72.35306 | 21022 ft | 419 kts | 103° |
| 2026-05-06 03:09 | 42.64575 | -72.31447 | 20804 ft | 409 kts | 104° |
| 2026-05-06 03:09 | 42.64118 | -72.27624 | 20230 ft | 411 kts | 103° |
| 2026-05-06 03:10 | 42.63673 | -72.23790 | 19705 ft | 411 kts | 103° |
| 2026-05-06 03:10 | 42.63232 | -72.19960 | 19175 ft | 411 kts | 103° |
| 2026-05-06 03:10 | 42.62789 | -72.16129 | 18638 ft | 411 kts | 103° |
| 2026-05-06 03:10 | 42.62344 | -72.12304 | 18066 ft | 411 kts | 103° |
| 2026-05-06 03:11 | 42.61896 | -72.08472 | 17461 ft | 410 kts | 103° |
| 2026-05-06 03:11 | 42.61446 | -72.04657 | 16897 ft | 409 kts | 103° |
| 2026-05-06 03:11 | 42.60990 | -72.00873 | 16410 ft | 405 kts | 103° |
| 2026-05-06 03:11 | 42.60522 | -71.97100 | 15853 ft | 404 kts | 103° |
| 2026-05-06 03:12 | 42.60052 | -71.93347 | 15301 ft | 403 kts | 103° |
| 2026-05-06 03:12 | 42.59584 | -71.89599 | 14755 ft | 402 kts | 103° |
| 2026-05-06 03:12 | 42.59119 | -71.85868 | 14217 ft | 401 kts | 103° |
| 2026-05-06 03:12 | 42.58652 | -71.82142 | 13735 ft | 398 kts | 103° |
| 2026-05-06 03:13 | 42.58139 | -71.78484 | 13261 ft | 393 kts | 105° |
| 2026-05-06 03:13 | 42.57561 | -71.74893 | 12815 ft | 387 kts | 106° |
| 2026-05-06 03:13 | 42.56982 | -71.71376 | 12370 ft | 376 kts | 106° |
| 2026-05-06 03:13 | 42.56429 | -71.67975 | 11971 ft | 363 kts | 106° |
| 2026-05-06 03:14 | 42.55901 | -71.64672 | 11582 ft | 355 kts | 106° |
| 2026-05-06 03:14 | 42.55385 | -71.61440 | 11209 ft | 349 kts | 106° |
| 2026-05-06 03:14 | 42.54861 | -71.58252 | 10864 ft | 343 kts | 108° |
| 2026-05-06 03:14 | 42.54252 | -71.55171 | 10595 ft | 338 kts | 110° |
| 2026-05-06 03:15 | 42.53605 | -71.52129 | 10313 ft | 334 kts | 110° |
| 2026-05-06 03:15 | 42.52961 | -71.49122 | 10038 ft | 331 kts | 110° |
| 2026-05-06 03:15 | 42.52329 | -71.46147 | 9937 ft | 321 kts | 110° |
| 2026-05-06 03:15 | 42.51732 | -71.43293 | 9881 ft | 309 kts | 110° |
| 2026-05-06 03:16 | 42.51140 | -71.40470 | 9311 ft | 318 kts | 110° |
| 2026-05-06 03:16 | 42.50531 | -71.37553 | 8956 ft | 318 kts | 110° |
| 2026-05-06 03:16 | 42.49950 | -71.34718 | 8676 ft | 313 kts | 110° |
| 2026-05-06 03:16 | 42.49394 | -71.31915 | 8398 ft | 304 kts | 110° |
| 2026-05-06 03:17 | 42.48853 | -71.29186 | 8140 ft | 296 kts | 110° |
| 2026-05-06 03:17 | 42.48323 | -71.26518 | 7901 ft | 292 kts | 110° |
| 2026-05-06 03:17 | 42.47788 | -71.23848 | 7663 ft | 293 kts | 110° |
| 2026-05-06 03:17 | 42.47254 | -71.21189 | 7425 ft | 293 kts | 110° |
| 2026-05-06 03:18 | 42.46721 | -71.18547 | 7186 ft | 291 kts | 110° |
| 2026-05-06 03:18 | 42.46421 | -71.15824 | 6909 ft | 298 kts | 88° |
| 2026-05-06 03:18 | 42.46966 | -71.13102 | 6699 ft | 303 kts | 65° |
| 2026-05-06 03:18 | 42.47900 | -71.10558 | 6456 ft | 300 kts | 62° |
| 2026-05-06 03:19 | 42.48863 | -71.08058 | 6206 ft | 298 kts | 58° |
| 2026-05-06 03:19 | 42.50236 | -71.06019 | 6016 ft | 287 kts | 32° |
| 2026-05-06 03:19 | 42.51955 | -71.04871 | 6004 ft | 268 kts | 13° |
| 2026-05-06 03:19 | 42.53684 | -71.04042 | 6009 ft | 266 kts | 13° |
| 2026-05-06 03:20 | 42.57214 | -71.02336 | 5961 ft | 267 kts | 14° |
| 2026-05-06 03:20 | 42.58925 | -71.01522 | 5710 ft | 262 kts | 11° |
| 2026-05-06 03:20 | 42.60671 | -71.00816 | 5364 ft | 258 kts | 9° |
| 2026-05-06 03:21 | 42.62330 | -70.99931 | 5057 ft | 262 kts | 33° |
| 2026-05-06 03:21 | 42.63422 | -70.97987 | 4710 ft | 261 kts | 73° |
| 2026-05-06 03:21 | 42.63541 | -70.95613 | 4239 ft | 250 kts | 105° |
| 2026-05-06 03:21 | 42.63255 | -70.93273 | 3677 ft | 252 kts | 106° |
| 2026-05-06 03:22 | 42.62933 | -70.90937 | 3205 ft | 249 kts | 113° |
| 2026-05-06 03:22 | 42.62162 | -70.88934 | 3044 ft | 230 kts | 148° |
| 2026-05-06 03:22 | 42.60860 | -70.88131 | 2998 ft | 195 kts | 188° |
| 2026-05-06 03:22 | 42.59698 | -70.88653 | 3006 ft | 164 kts | 216° |
| 2026-05-06 03:23 | 42.58735 | -70.89360 | 2992 ft | 154 kts | 214° |
| 2026-05-06 03:23 | 42.57762 | -70.90016 | 3002 ft | 158 kts | 211° |
| 2026-05-06 03:23 | 42.56757 | -70.90603 | 2995 ft | 155 kts | 210° |
| 2026-05-06 03:23 | 42.55764 | -70.91124 | 2985 ft | 152 kts | 208° |
| 2026-05-06 03:24 | 42.54717 | -70.91524 | 2981 ft | 163 kts | 195° |
| 2026-05-06 03:24 | 42.53583 | -70.91646 | 2965 ft | 161 kts | 209° |
| 2026-05-06 03:24 | 42.52775 | -70.92514 | 2986 ft | 151 kts | 232° |
| 2026-05-06 03:24 | 42.51974 | -70.93433 | 2931 ft | 158 kts | 207° |
| 2026-05-06 03:25 | 42.50863 | -70.93730 | 2770 ft | 164 kts | 202° |
| 2026-05-06 03:25 | 42.49806 | -70.94131 | 2574 ft | 152 kts | 205° |
| 2026-05-06 03:25 | 42.48836 | -70.94542 | 2405 ft | 145 kts | 206° |
| 2026-05-06 03:25 | 42.47874 | -70.94988 | 2210 ft | 148 kts | 207° |
| 2026-05-06 03:26 | 42.46923 | -70.95447 | 2020 ft | 144 kts | 207° |
| 2026-05-06 03:26 | 42.45999 | -70.95891 | 1829 ft | 135 kts | 208° |
| 2026-05-06 03:26 | 42.45156 | -70.96297 | 1649 ft | 121 kts | 209° |
| 2026-05-06 03:26 | 42.44405 | -70.96670 | 1488 ft | 111 kts | 209° |
| 2026-05-06 03:27 | 42.43677 | -70.97004 | 1365 ft | 109 kts | 208° |
| 2026-05-06 03:27 | 42.42960 | -70.97384 | 1203 ft | 113 kts | 207° |
| 2026-05-06 03:27 | 42.42225 | -70.97734 | 1059 ft | 114 kts | 205° |
| 2026-05-06 03:27 | 42.41455 | -70.98099 | 906 ft | 120 kts | 204° |
| 2026-05-06 03:28 | 42.40651 | -70.98512 | 742 ft | 128 kts | 203° |
| 2026-05-06 03:28 | 42.39784 | -70.98896 | 566 ft | 133 kts | 200° |
| 2026-05-06 03:28 | 42.39214 | -70.99175 | 468 ft | 131 kts | 203° |
| 2026-05-06 03:28 | 42.38357 | -70.99606 | 259 ft | 132 kts | 202° |
| 2026-05-06 03:29 | 42.37501 | -71.00023 | 59 ft | 127 kts | 201° |
| 2026-05-06 03:29 | 42.36731 | -71.00399 | 27 ft | 101 kts | 200° |
| 2026-05-06 03:29 | 42.36208 | -71.00649 | 25 ft | 58 kts | 199° |
| 2026-05-06 03:29 | 42.35968 | -71.00835 | 26 ft | 34 kts | 227° |
| 2026-05-06 03:30 | 42.35838 | -71.01069 | 24 ft | 28 kts | 254° |
| 2026-05-06 03:30 | 42.35852 | -71.01326 | 25 ft | 27 kts | 277° |
| 2026-05-06 03:30 | 42.35881 | -71.01541 | 25 ft | 18 kts | 280° |
| 2026-05-06 03:30 | 42.35899 | -71.01678 | 25 ft | 11 kts | 281° |
| 2026-05-06 03:31 | 42.35904 | -71.01716 | 29 ft | 0 kts | 281° |
| 2026-05-06 03:31 | 42.35908 | -71.01726 | 27 ft | 3 kts | 300° |
| 2026-05-06 03:31 | 42.35937 | -71.01740 | 24 ft | 6 kts | 353° |
| 2026-05-06 03:31 | 42.35968 | -71.01745 | 26 ft | 2 kts | 353° |
| 2026-05-06 03:32 | 42.35980 | -71.01747 | 28 ft | 1 kts | 353° |
| 2026-05-06 03:32 | 42.35982 | -71.01747 | 28 ft | 0 kts | 353° |